Time;durP1;ratioP1;P1;durP2;ratioP2;P2;SDS_P1;SDS_P2;PMS_P1;PMS_P2;Temp;Humidity;BMP_temperature;BMP_pressure;BME280_temperature;BME280_humidity;BME280_pressure;Samples;Min_cycle;Max_cycle;Signal;HPM_P1;HPM_P2
2022/11/28 00:01:06;;;;;;;16.50;12.97;;;4.00;99.90;;;;;;5052660;28;20181;-76
2022/11/28 00:03:32;;;;;;;16.77;13.47;;;4.00;99.90;;;;;;5053017;28;20205;-76
2022/11/28 00:06:03;;;;;;;16.90;13.03;;;4.00;99.90;;;;;;5052512;28;20201;-76
2022/11/28 00:08:29;;;;;;;15.57;12.47;;;4.00;99.90;;;;;;5052464;28;20194;-76
2022/11/28 00:10:55;;;;;;;14.60;12.37;;;4.10;99.90;;;;;;5052551;28;20238;-76
2022/11/28 00:14:09;;;;;;;17.73;12.87;;;4.00;99.90;;;;;;5052437;28;20672;-76
2022/11/28 00:16:35;;;;;;;16.43;12.40;;;4.00;99.90;;;;;;5052573;28;20166;-76
2022/11/28 00:19:02;;;;;;;15.13;12.13;;;4.00;99.90;;;;;;5053494;28;20205;-76
2022/11/28 00:21:28;;;;;;;16.00;12.67;;;4.00;99.90;;;;;;5053398;28;20189;-76
2022/11/28 00:23:53;;;;;;;15.80;13.27;;;4.00;99.90;;;;;;5053470;28;20174;-76
2022/11/28 00:26:31;;;;;;;14.87;12.30;;;4.10;99.90;;;;;;5052542;28;20169;-75
2022/11/28 00:29:06;;;;;;;15.67;12.50;;;4.10;99.90;;;;;;5052216;28;20224;-76
2022/11/28 00:31:34;;;;;;;17.27;14.33;;;4.10;99.90;;;;;;5052297;28;20162;-76
2022/11/28 00:34:00;;;;;;;17.50;14.27;;;4.00;99.90;;;;;;5052974;28;20178;-76
2022/11/28 00:36:28;;;;;;;17.47;13.57;;;4.00;99.90;;;;;;5052248;28;20224;-76
2022/11/28 00:38:53;;;;;;;15.87;11.90;;;4.10;99.90;;;;;;5053456;28;20194;-76
2022/11/28 00:41:23;;;;;;;16.17;13.20;;;4.10;99.90;;;;;;5052457;28;20185;-76
2022/11/28 00:43:50;;;;;;;17.50;13.13;;;4.10;99.90;;;;;;5051907;28;20170;-76
2022/11/28 00:46:18;;;;;;;18.70;14.50;;;4.10;99.90;;;;;;5052128;28;20185;-76
2022/11/28 00:48:43;;;;;;;16.73;13.17;;;4.10;99.90;;;;;;5052037;28;20669;-76
2022/11/28 00:51:12;;;;;;;16.80;13.23;;;3.90;99.90;;;;;;5053508;28;20185;-76
2022/11/28 00:53:41;;;;;;;17.90;13.47;;;3.90;99.90;;;;;;5052134;28;20182;-76
2022/11/28 00:56:09;;;;;;;20.13;14.03;;;3.80;99.90;;;;;;5051959;28;20248;-76
2022/11/28 00:58:35;;;;;;;16.60;13.40;;;3.80;99.90;;;;;;5052174;28;20205;-76
2022/11/28 01:01:15;;;;;;;16.80;14.00;;;3.90;99.90;;;;;;5052855;28;20220;-76
2022/11/28 01:03:41;;;;;;;18.07;13.67;;;3.90;99.90;;;;;;5053404;28;20177;-76
2022/11/28 01:06:08;;;;;;;15.17;13.20;;;4.00;99.90;;;;;;5051900;28;20196;-76
2022/11/28 01:08:36;;;;;;;16.63;13.70;;;4.10;99.90;;;;;;5053050;28;20198;-76
2022/11/28 01:11:03;;;;;;;15.90;12.60;;;4.10;99.90;;;;;;5051929;28;20168;-76
2022/11/28 01:13:28;;;;;;;17.33;13.53;;;4.10;99.90;;;;;;5052138;28;20200;-76
2022/11/28 01:15:55;;;;;;;18.27;14.20;;;4.10;99.90;;;;;;5053020;28;20654;-76
2022/11/28 01:18:20;;;;;;;16.60;13.97;;;4.00;99.90;;;;;;5051751;28;20233;-76
2022/11/28 01:20:46;;;;;;;16.67;13.53;;;4.10;99.90;;;;;;5053481;28;20209;-76
2022/11/28 01:23:11;;;;;;;15.00;12.87;;;4.10;99.90;;;;;;5051713;28;20620;-76
2022/11/28 01:25:37;;;;;;;15.13;13.50;;;4.10;99.90;;;;;;5051686;28;20201;-76
2022/11/28 01:28:03;;;;;;;17.10;13.60;;;4.20;99.90;;;;;;5051961;28;20248;-76
2022/11/28 01:30:28;;;;;;;16.77;13.43;;;4.20;99.90;;;;;;5052022;28;20178;-76
2022/11/28 01:32:54;;;;;;;14.83;12.87;;;4.20;99.90;;;;;;5051722;28;20190;-76
2022/11/28 01:35:20;;;;;;;16.63;13.23;;;4.30;99.90;;;;;;5052867;28;20225;-76
2022/11/28 01:37:45;;;;;;;16.97;13.33;;;4.30;99.90;;;;;;5051799;28;20570;-76
2022/11/28 01:40:12;;;;;;;15.03;13.03;;;4.10;99.90;;;;;;5052835;28;20218;-76
2022/11/28 01:42:37;;;;;;;15.23;12.93;;;4.20;99.90;;;;;;5051309;28;20206;-76
2022/11/28 01:45:28;;;;;;;16.87;13.40;;;4.20;99.90;;;;;;5051784;28;20257;-76
2022/11/28 01:47:56;;;;;;;16.97;13.47;;;4.30;99.90;;;;;;5051482;28;20198;-76
2022/11/28 01:50:22;;;;;;;16.63;13.67;;;4.20;99.90;;;;;;5051529;28;20178;-76
2022/11/28 01:52:54;;;;;;;17.77;14.37;;;4.10;99.90;;;;;;5051419;28;20236;-76
2022/11/28 01:55:23;;;;;;;16.37;13.53;;;4.00;99.90;;;;;;5052301;28;20551;-75
2022/11/28 01:57:50;;;;;;;17.23;13.63;;;4.00;99.90;;;;;;5054922;28;20206;-76
2022/11/28 02:00:18;;;;;;;20.17;14.83;;;4.00;99.90;;;;;;5055265;28;20273;-76
2022/11/28 02:03:05;;;;;;;17.33;14.60;;;4.00;99.90;;;;;;5055184;28;20209;-76
2022/11/28 02:05:32;;;;;;;16.97;14.07;;;4.00;99.90;;;;;;5055069;28;20660;-76
2022/11/28 02:07:58;;;;;;;17.37;14.53;;;4.10;99.90;;;;;;5055283;28;20205;-76
2022/11/28 02:10:35;;;;;;;17.27;14.40;;;4.10;99.90;;;;;;5056329;28;20179;-76
2022/11/28 02:16:28;;;;;;;18.10;14.13;;;4.10;99.90;;;;;;5055933;28;20162;-76
2022/11/28 02:19:00;;;;;;;18.03;14.43;;;4.10;99.90;;;;;;5055439;28;20202;-76
2022/11/28 02:21:45;;;;;;;16.47;13.97;;;4.10;99.90;;;;;;5054430;28;20182;-76
2022/11/28 02:24:10;;;;;;;16.13;13.80;;;4.20;99.90;;;;;;5055052;28;20186;-76
2022/11/28 02:26:47;;;;;;;14.23;12.63;;;4.20;99.90;;;;;;5054460;28;20185;-76
2022/11/28 02:29:29;;;;;;;16.67;13.50;;;4.20;99.90;;;;;;5055644;28;20285;-76
2022/11/28 02:32:32;;;;;;;23.73;16.50;;;4.10;99.90;;;;;;5054373;28;20661;-76
2022/11/28 02:35:07;;;;;;;19.47;15.27;;;4.10;99.90;;;;;;5054279;28;20208;-76
2022/11/28 02:37:41;;;;;;;18.80;14.53;;;4.00;99.90;;;;;;5054362;28;20201;-76
2022/11/28 02:40:19;;;;;;;16.00;13.50;;;3.90;99.90;;;;;;5055712;28;20162;-76
2022/11/28 02:43:06;;;;;;;17.70;14.20;;;3.80;99.90;;;;;;5054066;28;20197;-76
2022/11/28 02:45:38;;;;;;;15.90;13.40;;;3.80;99.90;;;;;;5055067;28;20174;-76
2022/11/28 02:48:09;;;;;;;15.23;12.67;;;3.80;99.90;;;;;;5055410;28;20218;-76
2022/11/28 02:50:48;;;;;;;17.13;13.80;;;3.90;99.90;;;;;;5054109;28;20201;-76
2022/11/28 02:53:20;;;;;;;16.30;13.00;;;3.90;99.90;;;;;;5054835;28;20174;-76
2022/11/28 02:55:52;;;;;;;15.67;12.87;;;4.00;99.90;;;;;;5054802;28;20583;-76
2022/11/28 02:58:17;;;;;;;16.63;12.87;;;4.00;99.90;;;;;;5054415;28;20221;-76
2022/11/28 03:00:48;;;;;;;13.93;12.17;;;4.10;99.90;;;;;;5053871;28;20552;-76
2022/11/28 03:03:26;;;;;;;18.13;13.57;;;4.10;99.90;;;;;;5054658;28;20248;-76
2022/11/28 03:06:26;;;;;;;15.87;13.53;;;4.10;99.90;;;;;;5055241;28;20212;-76
2022/11/28 03:09:17;;;;;;;16.83;12.60;;;4.10;99.90;;;;;;5053697;28;20194;-76
2022/11/28 03:12:16;;;;;;;15.10;12.80;;;4.00;99.90;;;;;;5053699;28;20176;-76
2022/11/28 03:14:49;;;;;;;16.60;13.50;;;4.10;99.90;;;;;;5051811;28;20186;-76
2022/11/28 03:17:31;;;;;;;15.20;12.60;;;4.00;99.90;;;;;;5054784;28;20244;-77
2022/11/28 03:20:27;;;;;;;16.97;13.07;;;4.10;99.90;;;;;;5053527;28;20269;-76
2022/11/28 03:23:00;;;;;;;16.17;12.87;;;4.10;99.90;;;;;;5054832;28;20277;-76
2022/11/28 03:25:57;;;;;;;17.13;12.90;;;4.10;99.90;;;;;;5053359;28;20187;-76
2022/11/28 03:28:46;;;;;;;14.80;12.80;;;4.10;99.90;;;;;;5054356;28;20198;-76
2022/11/28 03:31:20;;;;;;;14.10;12.40;;;4.10;99.90;;;;;;5053600;28;20206;-75
2022/11/28 03:33:55;;;;;;;17.33;14.13;;;4.10;99.90;;;;;;5054030;28;20170;-75
2022/11/28 03:36:37;;;;;;;14.57;12.53;;;4.20;99.90;;;;;;5054213;28;20597;-75
2022/11/28 03:39:09;;;;;;;16.67;12.83;;;4.10;99.90;;;;;;5053238;28;20198;-76
2022/11/28 03:41:39;;;;;;;18.60;12.77;;;4.20;99.90;;;;;;5053120;28;20170;-76
2022/11/28 03:44:13;;;;;;;15.20;12.90;;;4.20;99.90;;;;;;5054560;28;20196;-76
2022/11/28 03:46:44;;;;;;;15.23;12.57;;;4.30;99.90;;;;;;5054942;28;20253;-76
2022/11/28 03:49:12;;;;;;;15.37;13.03;;;4.20;99.90;;;;;;5054002;28;20269;-76
2022/11/28 03:51:46;;;;;;;14.30;12.80;;;4.20;99.90;;;;;;5052914;28;20174;-76
2022/11/28 03:54:19;;;;;;;16.67;13.70;;;4.10;99.90;;;;;;5052923;28;20174;-76
2022/11/28 03:56:59;;;;;;;17.77;13.50;;;4.00;99.90;;;;;;5052878;28;20170;-76
2022/11/28 03:59:36;;;;;;;16.60;12.17;;;4.00;99.90;;;;;;5054824;28;20163;-76
2022/11/28 04:02:25;;;;;;;16.27;13.50;;;4.10;99.90;;;;;;5052583;28;20197;-76
2022/11/28 04:05:26;;;;;;;16.67;13.17;;;4.00;99.90;;;;;;5053536;28;20193;-76
2022/11/28 04:08:05;;;;;;;14.90;12.50;;;4.00;99.90;;;;;;5052580;28;20194;-76
2022/11/28 04:10:50;;;;;;;17.63;12.87;;;3.90;99.90;;;;;;5052551;28;20257;-76
2022/11/28 04:13:28;;;;;;;17.03;12.83;;;3.90;99.90;;;;;;5053700;28;20174;-76
2022/11/28 04:16:31;;;;;;;15.87;13.17;;;3.90;99.90;;;;;;5053848;28;20162;-75
2022/11/28 04:19:20;;;;;;;16.33;13.03;;;3.90;99.90;;;;;;5051073;28;20197;-76
2022/11/28 04:21:50;;;;;;;15.83;13.10;;;3.90;99.90;;;;;;5052012;28;20224;-76
2022/11/28 04:24:24;;;;;;;17.47;14.00;;;3.80;99.90;;;;;;5053777;28;20580;-76
2022/11/28 04:30:12;;;;;;;18.17;13.50;;;3.90;99.90;;;;;;5053731;28;20205;-76
2022/11/28 04:32:45;;;;;;;17.17;13.60;;;3.90;99.90;;;;;;5052140;28;20194;-76
2022/11/28 04:35:17;;;;;;;15.27;13.00;;;3.90;99.90;;;;;;5052182;28;20280;-76
2022/11/28 04:37:47;;;;;;;16.17;13.13;;;3.90;99.90;;;;;;5053364;28;20197;-76
2022/11/28 04:40:14;;;;;;;17.10;13.13;;;4.00;99.90;;;;;;5052832;28;20170;-76
2022/11/28 04:42:48;;;;;;;17.10;13.07;;;3.90;99.90;;;;;;5051975;28;20197;-76
2022/11/28 04:45:20;;;;;;;18.73;14.80;;;3.90;99.90;;;;;;5052979;28;20174;-76
2022/11/28 04:47:46;;;;;;;17.50;14.27;;;4.00;99.90;;;;;;5053638;28;20280;-76
2022/11/28 04:50:12;;;;;;;20.13;15.53;;;4.00;99.90;;;;;;5052043;28;20201;-76
2022/11/28 04:53:01;;;;;;;26.70;21.27;;;3.90;99.90;;;;;;5053675;28;20173;-76
2022/11/28 04:56:02;;;;;;;22.23;17.50;;;3.90;99.90;;;;;;5052018;28;20641;-76
2022/11/28 04:58:39;;;;;;;22.77;15.73;;;3.80;99.90;;;;;;5040755;28;20213;-76
2022/11/28 05:01:08;;;;;;;18.73;13.80;;;3.90;99.90;;;;;;5051987;28;20518;-76
2022/11/28 05:03:34;;;;;;;17.13;12.53;;;3.70;99.90;;;;;;5052779;28;20202;-76
2022/11/28 05:06:00;;;;;;;16.20;13.40;;;3.80;99.90;;;;;;5052187;28;20208;-76
2022/11/28 05:08:26;;;;;;;16.57;12.93;;;3.80;99.90;;;;;;5053250;28;20198;-76
2022/11/28 05:10:52;;;;;;;16.03;12.93;;;3.80;99.90;;;;;;5052449;28;20180;-76
2022/11/28 05:13:17;;;;;;;17.97;13.50;;;3.90;99.90;;;;;;5052957;28;20174;-76
2022/11/28 05:15:43;;;;;;;17.60;13.73;;;3.90;99.90;;;;;;5052197;28;20178;-75
2022/11/28 05:18:08;;;;;;;18.43;12.70;;;3.80;99.90;;;;;;5052941;28;20259;-75
2022/11/28 05:20:35;;;;;;;15.87;13.97;;;3.90;99.90;;;;;;5052127;28;20285;-75
2022/11/28 05:23:01;;;;;;;18.27;13.57;;;3.80;99.90;;;;;;5051934;28;20226;-75
2022/11/28 05:25:26;;;;;;;18.17;14.77;;;3.80;99.90;;;;;;5052062;28;20210;-75
2022/11/28 05:27:52;;;;;;;25.23;19.60;;;3.70;99.90;;;;;;5052445;28;20590;-75
2022/11/28 05:30:18;;;;;;;19.30;15.07;;;3.80;99.90;;;;;;5053633;28;20217;-76
2022/11/28 05:32:45;;;;;;;16.47;14.00;;;3.80;99.90;;;;;;5056253;28;20209;-75
2022/11/28 05:35:11;;;;;;;19.33;14.50;;;3.80;99.90;;;;;;5056118;28;20243;-76
2022/11/28 05:37:37;;;;;;;17.97;13.67;;;3.80;99.90;;;;;;5055485;28;20292;-76
2022/11/28 05:40:03;;;;;;;18.03;14.97;;;3.90;99.90;;;;;;5056111;28;20189;-76
2022/11/28 05:42:33;;;;;;;17.57;15.07;;;3.90;99.90;;;;;;5055139;28;20225;-76
2022/11/28 05:44:59;;;;;;;20.00;15.87;;;3.90;99.90;;;;;;5057038;28;20174;-76
2022/11/28 05:47:25;;;;;;;18.67;14.70;;;4.00;99.90;;;;;;5055197;28;20213;-76
2022/11/28 05:49:50;;;;;;;18.37;14.50;;;4.00;99.90;;;;;;5055797;28;20175;-76
2022/11/28 05:52:16;;;;;;;20.63;16.70;;;4.00;99.90;;;;;;5055644;28;20182;-76
2022/11/28 05:54:42;;;;;;;22.50;16.70;;;4.00;99.90;;;;;;5055916;28;20181;-75
2022/11/28 05:57:07;;;;;;;31.77;27.17;;;4.10;99.90;;;;;;5056175;28;20595;-76
2022/11/28 05:59:33;;;;;;;20.33;17.83;;;4.10;99.90;;;;;;5055393;28;20170;-76
2022/11/28 06:01:59;;;;;;;18.37;13.97;;;4.20;99.90;;;;;;5054849;28;20289;-76
2022/11/28 06:04:24;;;;;;;18.53;14.70;;;4.20;99.90;;;;;;5054910;28;20170;-76
2022/11/28 06:06:50;;;;;;;24.87;19.97;;;4.10;99.90;;;;;;5054903;28;20178;-76
2022/11/28 06:09:16;;;;;;;27.00;23.23;;;4.20;99.90;;;;;;5057000;28;20202;-76
2022/11/28 06:11:41;;;;;;;23.53;19.50;;;4.10;99.90;;;;;;5054767;28;20646;-76
2022/11/28 06:14:08;;;;;;;19.83;16.43;;;4.10;99.90;;;;;;5056185;28;20229;-76
2022/11/28 06:16:42;;;;;;;18.63;15.40;;;4.00;99.90;;;;;;5055523;28;20181;-76
2022/11/28 06:19:11;;;;;;;19.03;15.33;;;3.90;99.90;;;;;;5056037;28;20312;-76
2022/11/28 06:21:37;;;;;;;26.43;15.80;;;3.90;99.90;;;;;;5054673;28;20187;-76
2022/11/28 06:27:30;;;;;;;18.93;14.90;;;3.80;99.90;;;;;;5055667;28;20228;-76
2022/11/28 06:29:56;;;;;;;17.27;14.23;;;3.80;99.90;;;;;;5054804;28;20241;-76
2022/11/28 06:32:21;;;;;;;16.63;14.77;;;3.80;99.90;;;;;;5054646;28;20178;-76
2022/11/28 06:34:47;;;;;;;20.10;15.47;;;3.80;99.90;;;;;;5055432;28;20197;-76
2022/11/28 06:37:12;;;;;;;20.80;15.23;;;3.80;99.90;;;;;;5054269;28;20201;-76
2022/11/28 06:39:38;;;;;;;18.00;13.73;;;3.80;99.90;;;;;;5055376;28;20220;-76
2022/11/28 06:42:03;;;;;;;22.13;15.27;;;3.80;99.90;;;;;;5053955;28;20213;-76
2022/11/28 06:44:29;;;;;;;17.87;14.43;;;3.80;99.90;;;;;;5054593;28;20239;-75
2022/11/28 06:46:55;;;;;;;16.37;13.60;;;3.90;99.90;;;;;;5054195;28;20185;-75
2022/11/28 06:50:16;;;;;;;19.77;15.50;;;4.00;99.90;;;;;;5053948;28;20198;-76
2022/11/28 06:52:42;;;;;;;21.43;16.37;;;4.00;99.90;;;;;;5055850;28;20163;-75
2022/11/28 06:55:08;;;;;;;21.50;15.30;;;3.90;99.90;;;;;;5054212;28;20252;-75
2022/11/28 06:57:34;;;;;;;18.43;14.70;;;4.00;99.90;;;;;;5053861;28;20216;-75
2022/11/28 07:00:00;;;;;;;18.70;14.30;;;4.00;99.90;;;;;;5054299;28;20202;-75
2022/11/28 07:02:26;;;;;;;21.87;16.37;;;4.00;99.90;;;;;;5053835;28;20684;-75
2022/11/28 07:04:51;;;;;;;20.03;14.80;;;4.00;99.90;;;;;;5054177;28;20655;-76
2022/11/28 07:07:17;;;;;;;27.27;14.87;;;4.00;99.90;;;;;;5054690;28;20175;-76
2022/11/28 07:09:42;;;;;;;17.33;13.67;;;4.10;99.90;;;;;;5054032;28;20280;-76
2022/11/28 07:12:08;;;;;;;17.67;14.83;;;4.00;99.90;;;;;;5054130;28;20186;-76
2022/11/28 07:14:34;;;;;;;21.73;17.30;;;4.10;99.90;;;;;;5053539;28;20178;-76
2022/11/28 07:16:59;;;;;;;20.60;15.30;;;4.00;99.90;;;;;;5053528;28;20193;-75
2022/11/28 07:19:36;;;;;;;17.60;14.77;;;3.90;99.90;;;;;;5053496;28;20253;-81
2022/11/28 07:22:01;;;;;;;22.23;16.13;;;3.90;99.90;;;;;;5054598;28;20190;-75
2022/11/28 07:24:28;;;;;;;24.67;16.23;;;4.00;99.90;;;;;;5054962;28;20178;-75
2022/11/28 07:26:54;;;;;;;21.67;17.37;;;4.10;99.90;;;;;;5053768;28;20174;-75
2022/11/28 07:29:20;;;;;;;50.87;21.97;;;4.00;99.90;;;;;;5053418;28;20240;-75
2022/11/28 07:31:45;;;;;;;79.20;34.67;;;4.00;99.90;;;;;;5053680;28;20212;-75
2022/11/28 07:34:11;;;;;;;79.87;28.83;;;4.10;99.90;;;;;;5053530;28;20186;-74
2022/11/28 07:36:37;;;;;;;79.77;27.97;;;4.00;99.90;;;;;;5054817;28;20193;-75
2022/11/28 07:39:05;;;;;;;74.27;28.30;;;4.10;99.90;;;;;;5053347;28;20194;-75
2022/11/28 07:41:30;;;;;;;55.23;25.60;;;4.10;99.90;;;;;;5052984;28;20220;-75
2022/11/28 07:43:59;;;;;;;45.00;23.63;;;4.10;99.90;;;;;;5054057;28;20225;-75
2022/11/28 07:46:28;;;;;;;34.20;20.87;;;4.10;99.90;;;;;;5053199;28;20182;-75
2022/11/28 07:48:54;;;;;;;27.87;19.80;;;4.20;99.90;;;;;;5053132;28;20236;-75
2022/11/28 07:51:23;;;;;;;31.53;24.70;;;4.20;99.90;;;;;;5053396;28;20225;-75
2022/11/28 07:53:49;;;;;;;35.20;25.43;;;4.20;99.90;;;;;;5053652;28;20182;-75
2022/11/28 07:56:26;;;;;;;22.43;18.33;;;4.30;99.90;;;;;;5052830;28;20660;-75
2022/11/28 07:58:52;;;;;;;22.57;16.97;;;4.40;99.90;;;;;;5053198;28;20198;-75
2022/11/28 08:01:24;;;;;;;23.70;16.00;;;4.50;99.90;;;;;;5052693;28;20201;-75
2022/11/28 08:03:51;;;;;;;19.70;14.40;;;4.50;99.90;;;;;;5052508;28;20210;-75
2022/11/28 08:06:25;;;;;;;20.83;15.17;;;4.60;99.90;;;;;;5052715;28;20190;-75
2022/11/28 08:08:53;;;;;;;18.83;15.53;;;4.60;99.90;;;;;;5052884;28;20553;-75
2022/11/28 08:11:20;;;;;;;18.57;14.97;;;4.50;99.90;;;;;;5052593;28;20257;-75
2022/11/28 08:13:47;;;;;;;19.27;15.80;;;4.50;99.90;;;;;;5052861;28;20185;-74
2022/11/28 08:16:18;;;;;;;19.53;13.63;;;4.60;99.90;;;;;;5052516;28;20178;-75
2022/11/28 08:18:44;;;;;;;20.13;14.07;;;4.60;99.90;;;;;;5052409;28;20206;-75
2022/11/28 08:21:24;;;;;;;16.80;13.00;;;4.60;99.90;;;;;;5052514;28;20186;-75
2022/11/28 08:23:51;;;;;;;13.03;11.60;;;4.80;99.90;;;;;;5052349;28;20225;-74
2022/11/28 08:26:54;;;;;;;15.63;13.13;;;4.90;99.90;;;;;;5052657;28;20186;-74
2022/11/28 08:29:20;;;;;;;15.43;12.67;;;5.00;99.90;;;;;;5052282;28;20270;-75
2022/11/28 08:31:45;;;;;;;16.20;13.47;;;5.00;99.90;;;;;;5052288;28;20267;-75
2022/11/28 08:34:11;;;;;;;15.83;12.97;;;5.00;99.90;;;;;;5052528;28;20186;-75
2022/11/28 08:36:37;;;;;;;16.03;12.73;;;5.00;99.90;;;;;;5053798;28;20201;-75
2022/11/28 08:39:04;;;;;;;16.80;13.83;;;5.10;99.90;;;;;;5052032;28;20197;-75
2022/11/28 08:41:30;;;;;;;17.63;13.17;;;5.10;99.90;;;;;;5053315;28;20178;-75
2022/11/28 08:43:55;;;;;;;21.80;13.60;;;5.10;99.90;;;;;;5052131;28;20210;-75
2022/11/28 08:46:21;;;;;;;17.27;13.30;;;5.00;99.90;;;;;;5052098;28;20182;-75
2022/11/28 08:48:49;;;;;;;18.03;13.53;;;4.90;99.90;;;;;;5052362;28;20241;-75
2022/11/28 08:51:18;;;;;;;16.07;12.60;;;5.00;99.90;;;;;;5051916;28;20178;-75
2022/11/28 08:53:44;;;;;;;16.90;13.57;;;5.00;99.90;;;;;;5052607;28;20277;-75
2022/11/28 08:56:11;;;;;;;20.07;14.23;;;5.00;99.90;;;;;;5052945;28;20197;-75
2022/11/28 08:58:37;;;;;;;17.97;13.90;;;5.00;99.90;;;;;;5052046;28;20263;-78
2022/11/28 09:01:20;;;;;;;20.07;15.40;;;4.90;99.90;;;;;;5052438;28;20182;-75
2022/11/28 09:03:46;;;;;;;29.27;21.50;;;4.90;99.90;;;;;;5051944;28;20202;-75
2022/11/28 09:06:12;;;;;;;19.53;15.43;;;4.90;99.90;;;;;;5055854;28;20182;-75
2022/11/28 09:08:37;;;;;;;17.57;14.80;;;4.90;99.90;;;;;;5057413;28;20304;-75
2022/11/28 09:11:06;;;;;;;17.50;14.73;;;4.80;99.90;;;;;;5056040;28;20185;-75
2022/11/28 09:13:32;;;;;;;20.40;15.03;;;4.90;99.90;;;;;;5056328;28;20231;-75
2022/11/28 09:16:26;;;;;;;15.40;13.33;;;4.90;99.90;;;;;;5055991;28;20272;-75
2022/11/28 09:18:52;;;;;;;20.60;13.57;;;4.90;99.90;;;;;;5056150;28;20226;-75
2022/11/28 09:21:18;;;;;;;15.60;12.67;;;5.00;99.90;;;;;;5056047;28;20277;-75
2022/11/28 09:23:44;;;;;;;17.17;13.20;;;5.10;99.90;;;;;;5057266;28;20297;-75
2022/11/28 09:26:18;;;;;;;18.40;12.40;;;5.10;99.90;;;;;;5056909;28;20171;-75
2022/11/28 09:28:45;;;;;;;16.53;12.47;;;5.20;99.90;;;;;;5056822;28;20656;-75
2022/11/28 09:31:11;;;;;;;13.90;12.43;;;5.20;99.90;;;;;;5056938;28;20183;-75
2022/11/28 09:33:37;;;;;;;15.93;12.30;;;5.30;99.90;;;;;;5056641;28;20209;-75
2022/11/28 09:36:11;;;;;;;15.43;12.17;;;5.30;99.90;;;;;;5056854;28;20273;-75
2022/11/28 09:38:37;;;;;;;16.10;12.13;;;5.50;99.90;;;;;;5055261;28;20213;-75
2022/11/28 09:41:18;;;;;;;38.43;13.83;;;5.50;99.90;;;;;;5055397;28;20189;-75
2022/11/28 09:43:45;;;;;;;21.30;13.73;;;5.60;99.90;;;;;;5055662;28;20285;-75
2022/11/28 09:46:17;;;;;;;16.43;12.40;;;5.70;99.90;;;;;;5055621;28;20240;-75
2022/11/28 09:48:50;;;;;;;14.20;12.43;;;5.70;99.90;;;;;;5056341;28;20204;-75
2022/11/28 09:51:34;;;;;;;13.43;11.17;;;5.70;99.90;;;;;;5055709;28;20170;-75
2022/11/28 09:54:00;;;;;;;14.27;12.40;;;5.80;99.90;;;;;;5056401;28;20217;-75
2022/11/28 09:56:26;;;;;;;17.63;11.83;;;5.80;99.90;;;;;;5055204;28;20179;-75
2022/11/28 09:59:01;;;;;;;15.97;12.70;;;5.90;99.90;;;;;;5055290;28;20252;-75
2022/11/28 10:01:48;;;;;;;29.13;13.23;;;5.80;99.90;;;;;;5056610;28;20170;-75
2022/11/28 10:04:32;;;;;;;20.50;12.53;;;5.90;99.90;;;;;;5054990;28;20205;-75
2022/11/28 10:07:10;;;;;;;16.73;12.77;;;6.00;99.90;;;;;;5054999;28;20170;-75
2022/11/28 10:10:04;;;;;;;13.77;11.63;;;6.00;99.90;;;;;;5054848;28;20163;-75
2022/11/28 10:12:44;;;;;;;16.92;12.48;;;6.10;99.90;;;;;;5058593;28;20183;-75
2022/11/28 10:15:27;;;;;;;16.97;12.50;;;6.10;99.90;;;;;;5054819;28;20656;-75
2022/11/28 10:18:05;;;;;;;15.60;12.90;;;6.10;99.90;;;;;;5055389;28;20705;-75
2022/11/28 10:20:36;;;;;;;16.67;13.63;;;6.10;99.90;;;;;;5054730;28;20158;-74
2022/11/28 10:23:21;;;;;;;28.60;13.90;;;5.80;99.90;;;;;;5054515;28;20201;-74
2022/11/28 10:25:53;;;;;;;21.27;13.40;;;5.70;99.90;;;;;;5054705;28;20202;-75
2022/11/28 10:28:25;;;;;;;20.07;13.73;;;5.70;99.90;;;;;;5054963;28;20198;-74
2022/11/28 10:31:03;;;;;;;18.07;13.20;;;5.70;99.90;;;;;;5055724;28;20244;-74
2022/11/28 10:33:35;;;;;;;17.47;12.50;;;6.00;99.90;;;;;;5054694;28;20205;-74
2022/11/28 10:36:02;;;;;;;15.20;12.70;;;6.10;99.90;;;;;;5054507;28;20198;-77
2022/11/28 10:38:32;;;;;;;25.87;13.33;;;6.20;99.90;;;;;;5054931;28;20289;-75
2022/11/28 10:40:58;;;;;;;16.63;12.40;;;6.30;99.90;;;;;;5055196;28;20193;-74
2022/11/28 10:43:45;;;;;;;16.07;13.93;;;6.40;99.90;;;;;;5054619;28;20193;-74
2022/11/28 10:46:17;;;;;;;18.00;13.60;;;6.40;99.90;;;;;;5054253;28;20166;-74
2022/11/28 10:48:52;;;;;;;19.17;13.07;;;6.30;99.90;;;;;;5054182;28;20205;-74
2022/11/28 10:51:33;;;;;;;19.40;13.40;;;6.40;99.90;;;;;;5054952;28;20166;-74
2022/11/28 10:54:17;;;;;;;15.38;13.48;;;6.50;99.90;;;;;;5055209;28;20166;-74
2022/11/28 10:57:05;;;;;;;18.17;13.50;;;6.50;99.90;;;;;;5054784;28;20181;-74
2022/11/28 10:59:55;;;;;;;21.85;14.02;;;6.50;99.90;;;;;;5054495;28;20182;-74
2022/11/28 11:02:36;;;;;;;31.23;15.00;;;6.60;99.90;;;;;;5053850;28;20220;-74
2022/11/28 11:05:02;;;;;;;19.30;13.55;;;6.60;99.90;;;;;;5053955;28;20162;-74
2022/11/28 11:07:30;;;;;;;16.85;13.80;;;6.60;99.90;;;;;;5054082;28;20194;-75
2022/11/28 11:10:13;;;;;;;17.60;14.23;;;6.50;99.90;;;;;;5054880;28;20176;-74
2022/11/28 11:12:39;;;;;;;16.90;13.70;;;6.30;99.90;;;;;;5054585;28;20166;-75
2022/11/28 11:15:32;;;;;;;25.13;15.27;;;6.40;99.90;;;;;;5054772;28;20566;-75
2022/11/28 11:18:18;;;;;;;20.17;13.95;;;6.40;99.90;;;;;;5054234;28;20208;-74
2022/11/28 11:20:44;;;;;;;17.40;14.10;;;6.50;99.90;;;;;;5053565;28;20538;-74
2022/11/28 11:23:12;;;;;;;20.02;14.82;;;6.50;99.90;;;;;;5053414;28;20201;-74
2022/11/28 11:26:00;;;;;;;26.05;18.88;;;6.60;99.90;;;;;;5054191;28;20178;-75
2022/11/28 11:28:40;;;;;;;28.27;17.75;;;6.60;99.90;;;;;;5053731;28;20206;-75
2022/11/28 11:31:29;;;;;;;25.17;17.47;;;6.60;99.90;;;;;;5054765;28;20189;-74
2022/11/28 11:34:17;;;;;;;32.60;23.70;;;6.50;99.90;;;;;;5054055;28;20174;-75
2022/11/28 11:36:43;;;;;;;19.20;14.98;;;6.70;99.90;;;;;;5053569;28;20598;-74
2022/11/28 11:39:09;;;;;;;19.85;14.27;;;6.50;99.90;;;;;;5053117;28;20236;-74
2022/11/28 11:41:36;;;;;;;19.20;13.48;;;6.50;99.90;;;;;;5054340;28;20244;-75
2022/11/28 11:44:14;;;;;;;26.67;14.75;;;6.60;99.90;;;;;;5052827;28;20216;-74
2022/11/28 11:46:54;;;;;;;21.98;14.65;;;6.70;99.90;;;;;;5053018;28;20170;-74
2022/11/28 11:49:31;;;;;;;16.95;14.45;;;6.80;99.90;;;;;;5053235;28;20280;-75
2022/11/28 11:52:00;;;;;;;22.92;15.43;;;6.70;99.90;;;;;;5052813;28;20595;-74
2022/11/28 11:54:26;;;;;;;27.80;15.55;;;6.70;99.90;;;;;;5053170;28;20216;-74
2022/11/28 11:56:52;;;;;;;19.88;14.13;;;6.70;99.90;;;;;;5054051;28;20170;-74
2022/11/28 11:59:28;;;;;;;23.20;15.25;;;6.60;99.90;;;;;;5052980;28;20261;-75
2022/11/28 12:02:22;;;;;;;22.52;16.10;;;6.60;99.90;;;;;;5053801;28;20170;-74
2022/11/28 12:04:55;;;;;;;21.88;15.98;;;6.70;99.90;;;;;;5053443;28;20178;-74
2022/11/28 12:07:31;;;;;;;16.55;14.43;;;6.70;99.90;;;;;;5053486;28;20198;-75
2022/11/28 12:09:57;;;;;;;17.15;14.80;;;6.70;99.90;;;;;;5053447;28;20197;-74
2022/11/28 12:12:29;;;;;;;19.50;15.07;;;6.60;99.90;;;;;;5052528;28;20646;-74
2022/11/28 12:14:55;;;;;;;18.00;14.55;;;6.60;99.90;;;;;;5054034;28;20170;-74
2022/11/28 12:17:45;;;;;;;33.63;16.05;;;6.70;99.90;;;;;;5053303;28;20293;-75
2022/11/28 12:20:39;;;;;;;24.88;16.10;;;6.60;99.90;;;;;;5052401;28;20197;-75
2022/11/28 12:23:12;;;;;;;19.63;15.73;;;6.70;99.90;;;;;;5053436;28;20679;-74
2022/11/28 12:26:03;;;;;;;19.50;15.70;;;6.70;99.90;;;;;;5052877;28;20178;-74
2022/11/28 12:29:02;;;;;;;23.38;15.50;;;6.90;99.90;;;;;;5052746;28;20198;-75
2022/11/28 12:31:52;;;;;;;47.03;16.52;;;6.70;99.90;;;;;;5052307;28;20170;-74
2022/11/28 12:34:27;;;;;;;27.30;15.85;;;6.80;99.90;;;;;;5052149;28;20207;-74
2022/11/28 12:37:48;;;;;;;26.13;16.48;;;6.80;99.90;;;;;;5052587;28;20189;-74
2022/11/28 12:40:44;;;;;;;21.92;16.83;;;6.80;99.90;;;;;;5034103;28;20178;-74
2022/11/28 12:46:50;;;;;;;31.20;18.02;;;6.80;99.90;;;;;;5051383;28;20153;-74
2022/11/28 12:49:23;;;;;;;55.50;19.50;;;6.90;99.90;;;;;;5034588;28;20244;-75
2022/11/28 12:52:01;;;;;;;27.35;18.02;;;6.90;99.90;;;;;;5043407;28;20206;-74
2022/11/28 12:54:45;;;;;;;19.77;16.00;;;7.00;99.90;;;;;;5053614;28;20159;-74
2022/11/28 12:57:46;;;;;;;39.33;19.60;;;7.10;99.90;;;;;;5051926;28;20181;-74
2022/11/28 13:00:19;;;;;;;27.25;17.95;;;7.00;99.90;;;;;;5034542;28;20182;-75
2022/11/28 13:03:03;;;;;;;22.83;16.95;;;6.90;99.90;;;;;;5048824;28;20201;-74
2022/11/28 13:06:03;;;;;;;21.23;17.30;;;7.00;99.90;;;;;;5051875;28;20171;-74
2022/11/28 13:08:45;;;;;;;20.52;16.75;;;6.90;99.90;;;;;;5051794;28;20221;-74
2022/11/28 13:11:33;;;;;;;27.35;18.23;;;6.80;99.90;;;;;;5052531;28;20194;-75
2022/11/28 13:14:04;;;;;;;16.85;15.05;;;6.70;99.90;;;;;;5052120;28;20171;-74
2022/11/28 13:16:44;;;;;;;18.80;15.68;;;6.80;99.90;;;;;;5052086;28;20343;-74
2022/11/28 13:19:44;;;;;;;19.77;16.48;;;6.80;99.90;;;;;;5051804;28;20200;-75